sensor_id;sensor_type;location;lat;lon;timestamp;temperature;humidity
55771;DHT22;41687;-33.234;-60.334;2022-10-16T00:01:43;12.50;97.50
55771;DHT22;41687;-33.234;-60.334;2022-10-16T00:04:11;12.50;97.70
55771;DHT22;41687;-33.234;-60.334;2022-10-16T00:06:39;12.50;97.30
55771;DHT22;41687;-33.234;-60.334;2022-10-16T00:09:07;12.50;97.10
55771;DHT22;41687;-33.234;-60.334;2022-10-16T00:11:37;12.50;97.30
55771;DHT22;41687;-33.234;-60.334;2022-10-16T00:14:12;12.50;96.70
55771;DHT22;41687;-33.234;-60.334;2022-10-16T00:16:41;12.40;97.50
55771;DHT22;41687;-33.234;-60.334;2022-10-16T00:19:11;12.50;97.20
55771;DHT22;41687;-33.234;-60.334;2022-10-16T00:21:39;12.40;97.30
55771;DHT22;41687;-33.234;-60.334;2022-10-16T00:24:08;12.40;97.30
55771;DHT22;41687;-33.234;-60.334;2022-10-16T00:26:37;12.40;97.30
55771;DHT22;41687;-33.234;-60.334;2022-10-16T00:29:05;12.50;97.00
55771;DHT22;41687;-33.234;-60.334;2022-10-16T00:31:34;12.40;97.00
55771;DHT22;41687;-33.234;-60.334;2022-10-16T00:34:02;12.40;97.00
55771;DHT22;41687;-33.234;-60.334;2022-10-16T00:36:30;12.40;97.20
55771;DHT22;41687;-33.234;-60.334;2022-10-16T00:38:58;12.40;97.10
55771;DHT22;41687;-33.234;-60.334;2022-10-16T00:41:28;12.40;97.20
55771;DHT22;41687;-33.234;-60.334;2022-10-16T00:43:58;12.50;97.40
55771;DHT22;41687;-33.234;-60.334;2022-10-16T00:46:38;12.50;97.30
55771;DHT22;41687;-33.234;-60.334;2022-10-16T00:49:15;12.40;97.10
55771;DHT22;41687;-33.234;-60.334;2022-10-16T00:51:46;12.40;97.70
55771;DHT22;41687;-33.234;-60.334;2022-10-16T00:54:22;12.40;97.90
55771;DHT22;41687;-33.234;-60.334;2022-10-16T00:56:51;12.40;97.70
55771;DHT22;41687;-33.234;-60.334;2022-10-16T00:59:37;12.40;97.60
55771;DHT22;41687;-33.234;-60.334;2022-10-16T01:02:08;12.50;97.70
55771;DHT22;41687;-33.234;-60.334;2022-10-16T01:04:55;12.50;97.60
55771;DHT22;41687;-33.234;-60.334;2022-10-16T01:07:54;12.40;97.70
55771;DHT22;41687;-33.234;-60.334;2022-10-16T01:10:45;12.40;98.20
55771;DHT22;41687;-33.234;-60.334;2022-10-16T01:13:38;12.40;98.10
55771;DHT22;41687;-33.234;-60.334;2022-10-16T01:16:39;12.30;98.30
55771;DHT22;41687;-33.234;-60.334;2022-10-16T01:19:26;12.30;98.20
55771;DHT22;41687;-33.234;-60.334;2022-10-16T01:21:59;12.30;98.20
55771;DHT22;41687;-33.234;-60.334;2022-10-16T01:24:38;12.30;97.50
55771;DHT22;41687;-33.234;-60.334;2022-10-16T01:33:00;12.10;97.10
55771;DHT22;41687;-33.234;-60.334;2022-10-16T01:35:38;12.00;97.70
55771;DHT22;41687;-33.234;-60.334;2022-10-16T01:38:17;11.90;97.80
55771;DHT22;41687;-33.234;-60.334;2022-10-16T01:40:51;11.80;97.80
55771;DHT22;41687;-33.234;-60.334;2022-10-16T01:43:45;11.80;97.90
55771;DHT22;41687;-33.234;-60.334;2022-10-16T01:46:11;11.80;97.80
55771;DHT22;41687;-33.234;-60.334;2022-10-16T01:48:41;11.90;97.70
55771;DHT22;41687;-33.234;-60.334;2022-10-16T01:51:19;11.80;98.00
55771;DHT22;41687;-33.234;-60.334;2022-10-16T01:53:53;11.80;98.20
55771;DHT22;41687;-33.234;-60.334;2022-10-16T01:56:23;11.80;97.90
55771;DHT22;41687;-33.234;-60.334;2022-10-16T01:59:08;11.70;98.30
55771;DHT22;41687;-33.234;-60.334;2022-10-16T02:01:40;11.70;98.10
55771;DHT22;41687;-33.234;-60.334;2022-10-16T02:04:17;11.70;98.60
55771;DHT22;41687;-33.234;-60.334;2022-10-16T02:06:46;11.80;98.60
55771;DHT22;41687;-33.234;-60.334;2022-10-16T02:09:14;11.80;98.80
55771;DHT22;41687;-33.234;-60.334;2022-10-16T02:11:44;11.80;98.60
55771;DHT22;41687;-33.234;-60.334;2022-10-16T02:14:12;11.80;98.60
55771;DHT22;41687;-33.234;-60.334;2022-10-16T02:16:45;11.80;98.00
55771;DHT22;41687;-33.234;-60.334;2022-10-16T02:19:15;11.70;98.60
55771;DHT22;41687;-33.234;-60.334;2022-10-16T02:21:51;11.60;99.10
55771;DHT22;41687;-33.234;-60.334;2022-10-16T02:24:33;11.60;99.10
55771;DHT22;41687;-33.234;-60.334;2022-10-16T02:29:47;11.60;99.80
55771;DHT22;41687;-33.234;-60.334;2022-10-16T02:32:21;11.60;99.90
55771;DHT22;41687;-33.234;-60.334;2022-10-16T02:34:52;11.50;99.90
55771;DHT22;41687;-33.234;-60.334;2022-10-16T02:37:20;11.50;99.90
55771;DHT22;41687;-33.234;-60.334;2022-10-16T02:39:48;11.60;99.90
55771;DHT22;41687;-33.234;-60.334;2022-10-16T02:42:18;11.50;99.90
55771;DHT22;41687;-33.234;-60.334;2022-10-16T02:44:46;11.50;99.90
55771;DHT22;41687;-33.234;-60.334;2022-10-16T02:47:14;11.50;99.90
55771;DHT22;41687;-33.234;-60.334;2022-10-16T02:49:42;11.60;99.90
55771;DHT22;41687;-33.234;-60.334;2022-10-16T02:52:09;11.60;99.90
55771;DHT22;41687;-33.234;-60.334;2022-10-16T02:54:39;11.60;99.90
55771;DHT22;41687;-33.234;-60.334;2022-10-16T02:57:06;11.50;99.90
55771;DHT22;41687;-33.234;-60.334;2022-10-16T02:59:34;11.50;99.90
55771;DHT22;41687;-33.234;-60.334;2022-10-16T03:02:02;11.50;99.90
55771;DHT22;41687;-33.234;-60.334;2022-10-16T03:04:30;11.50;99.90
55771;DHT22;41687;-33.234;-60.334;2022-10-16T03:06:57;11.50;99.90
55771;DHT22;41687;-33.234;-60.334;2022-10-16T03:09:25;11.50;99.90
55771;DHT22;41687;-33.234;-60.334;2022-10-16T03:11:53;11.50;99.90
55771;DHT22;41687;-33.234;-60.334;2022-10-16T03:14:21;11.40;99.90
55771;DHT22;41687;-33.234;-60.334;2022-10-16T03:16:48;11.40;99.90
55771;DHT22;41687;-33.234;-60.334;2022-10-16T03:19:17;11.40;99.90
55771;DHT22;41687;-33.234;-60.334;2022-10-16T03:21:45;11.40;99.90
55771;DHT22;41687;-33.234;-60.334;2022-10-16T03:24:13;11.40;99.90
55771;DHT22;41687;-33.234;-60.334;2022-10-16T03:26:42;11.40;99.90
55771;DHT22;41687;-33.234;-60.334;2022-10-16T03:29:10;11.40;99.90
55771;DHT22;41687;-33.234;-60.334;2022-10-16T03:31:37;11.40;99.90
55771;DHT22;41687;-33.234;-60.334;2022-10-16T03:34:05;11.40;99.90
55771;DHT22;41687;-33.234;-60.334;2022-10-16T03:36:33;11.40;99.90
55771;DHT22;41687;-33.234;-60.334;2022-10-16T03:39:01;11.40;99.90
55771;DHT22;41687;-33.234;-60.334;2022-10-16T03:41:28;11.40;99.90
55771;DHT22;41687;-33.234;-60.334;2022-10-16T03:43:57;11.30;99.90
55771;DHT22;41687;-33.234;-60.334;2022-10-16T03:46:24;11.30;99.90
55771;DHT22;41687;-33.234;-60.334;2022-10-16T03:48:52;11.30;99.90
55771;DHT22;41687;-33.234;-60.334;2022-10-16T03:51:20;11.30;99.90
55771;DHT22;41687;-33.234;-60.334;2022-10-16T03:53:48;11.40;99.90
55771;DHT22;41687;-33.234;-60.334;2022-10-16T03:56:15;11.40;99.90
55771;DHT22;41687;-33.234;-60.334;2022-10-16T03:58:43;11.30;99.90
55771;DHT22;41687;-33.234;-60.334;2022-10-16T04:01:11;11.30;99.90
55771;DHT22;41687;-33.234;-60.334;2022-10-16T04:03:39;11.30;99.90
55771;DHT22;41687;-33.234;-60.334;2022-10-16T04:06:07;11.30;99.90
55771;DHT22;41687;-33.234;-60.334;2022-10-16T04:08:35;11.20;99.90
55771;DHT22;41687;-33.234;-60.334;2022-10-16T04:11:03;11.20;99.90
55771;DHT22;41687;-33.234;-60.334;2022-10-16T04:13:31;11.20;99.90
55771;DHT22;41687;-33.234;-60.334;2022-10-16T04:15:59;11.20;99.90
55771;DHT22;41687;-33.234;-60.334;2022-10-16T04:18:27;11.20;99.90
55771;DHT22;41687;-33.234;-60.334;2022-10-16T04:20:55;11.30;99.90
55771;DHT22;41687;-33.234;-60.334;2022-10-16T04:23:24;11.30;99.90
55771;DHT22;41687;-33.234;-60.334;2022-10-16T04:25:51;11.20;99.90
55771;DHT22;41687;-33.234;-60.334;2022-10-16T04:28:19;11.10;99.90
55771;DHT22;41687;-33.234;-60.334;2022-10-16T04:30:48;11.00;99.90
55771;DHT22;41687;-33.234;-60.334;2022-10-16T04:33:16;10.90;99.90
55771;DHT22;41687;-33.234;-60.334;2022-10-16T04:35:44;10.80;99.90
55771;DHT22;41687;-33.234;-60.334;2022-10-16T04:38:11;10.80;99.70
55771;DHT22;41687;-33.234;-60.334;2022-10-16T04:40:39;10.70;99.70
55771;DHT22;41687;-33.234;-60.334;2022-10-16T04:43:09;10.60;99.80
55771;DHT22;41687;-33.234;-60.334;2022-10-16T04:45:37;10.60;99.80
55771;DHT22;41687;-33.234;-60.334;2022-10-16T04:48:05;10.50;99.90
55771;DHT22;41687;-33.234;-60.334;2022-10-16T04:50:32;10.50;99.80
55771;DHT22;41687;-33.234;-60.334;2022-10-16T04:53:10;10.50;99.80
55771;DHT22;41687;-33.234;-60.334;2022-10-16T04:55:37;10.50;99.60
55771;DHT22;41687;-33.234;-60.334;2022-10-16T04:58:05;10.50;99.60
55771;DHT22;41687;-33.234;-60.334;2022-10-16T05:00:34;10.50;99.40
55771;DHT22;41687;-33.234;-60.334;2022-10-16T05:03:02;10.50;99.10
55771;DHT22;41687;-33.234;-60.334;2022-10-16T05:05:33;10.40;99.50
55771;DHT22;41687;-33.234;-60.334;2022-10-16T05:08:00;10.40;99.40
55771;DHT22;41687;-33.234;-60.334;2022-10-16T05:10:29;10.30;99.70
55771;DHT22;41687;-33.234;-60.334;2022-10-16T05:12:56;10.20;99.30
55771;DHT22;41687;-33.234;-60.334;2022-10-16T05:15:24;10.10;99.90
55771;DHT22;41687;-33.234;-60.334;2022-10-16T05:17:55;10.10;99.90
55771;DHT22;41687;-33.234;-60.334;2022-10-16T05:20:23;10.10;99.90
55771;DHT22;41687;-33.234;-60.334;2022-10-16T05:22:51;10.00;99.90
55771;DHT22;41687;-33.234;-60.334;2022-10-16T05:25:19;10.00;99.90
55771;DHT22;41687;-33.234;-60.334;2022-10-16T05:27:50;10.00;99.90
55771;DHT22;41687;-33.234;-60.334;2022-10-16T05:30:18;10.00;99.90
55771;DHT22;41687;-33.234;-60.334;2022-10-16T05:32:50;9.80;99.90
55771;DHT22;41687;-33.234;-60.334;2022-10-16T05:35:19;9.80;99.90
55771;DHT22;41687;-33.234;-60.334;2022-10-16T05:37:47;9.80;99.90
55771;DHT22;41687;-33.234;-60.334;2022-10-16T05:40:15;9.90;99.90
55771;DHT22;41687;-33.234;-60.334;2022-10-16T05:42:43;9.90;99.90
55771;DHT22;41687;-33.234;-60.334;2022-10-16T05:45:12;9.90;99.90
55771;DHT22;41687;-33.234;-60.334;2022-10-16T05:47:39;9.80;99.90
55771;DHT22;41687;-33.234;-60.334;2022-10-16T05:50:07;9.80;99.90
55771;DHT22;41687;-33.234;-60.334;2022-10-16T05:52:35;9.80;99.90
55771;DHT22;41687;-33.234;-60.334;2022-10-16T05:55:04;9.80;99.90
55771;DHT22;41687;-33.234;-60.334;2022-10-16T05:57:32;9.80;99.90
55771;DHT22;41687;-33.234;-60.334;2022-10-16T06:00:00;9.90;99.90
55771;DHT22;41687;-33.234;-60.334;2022-10-16T06:02:28;9.80;99.90
55771;DHT22;41687;-33.234;-60.334;2022-10-16T06:04:56;9.80;99.90
55771;DHT22;41687;-33.234;-60.334;2022-10-16T06:07:24;9.80;99.90
55771;DHT22;41687;-33.234;-60.334;2022-10-16T06:09:53;9.80;99.90
55771;DHT22;41687;-33.234;-60.334;2022-10-16T06:12:21;9.80;99.90
55771;DHT22;41687;-33.234;-60.334;2022-10-16T06:14:49;9.80;99.90
55771;DHT22;41687;-33.234;-60.334;2022-10-16T06:17:16;9.80;99.90
55771;DHT22;41687;-33.234;-60.334;2022-10-16T06:19:44;9.80;99.90
55771;DHT22;41687;-33.234;-60.334;2022-10-16T06:22:12;9.80;99.90
55771;DHT22;41687;-33.234;-60.334;2022-10-16T06:24:40;9.90;99.90
55771;DHT22;41687;-33.234;-60.334;2022-10-16T06:27:07;9.80;99.90
55771;DHT22;41687;-33.234;-60.334;2022-10-16T06:29:36;9.80;99.90
55771;DHT22;41687;-33.234;-60.334;2022-10-16T06:32:03;10.00;99.90
55771;DHT22;41687;-33.234;-60.334;2022-10-16T06:34:31;9.90;99.90
55771;DHT22;41687;-33.234;-60.334;2022-10-16T06:36:59;10.00;99.90
55771;DHT22;41687;-33.234;-60.334;2022-10-16T06:39:27;10.00;99.90
55771;DHT22;41687;-33.234;-60.334;2022-10-16T06:41:54;10.00;99.90
55771;DHT22;41687;-33.234;-60.334;2022-10-16T06:44:25;9.90;99.90
55771;DHT22;41687;-33.234;-60.334;2022-10-16T06:46:53;9.90;99.90
55771;DHT22;41687;-33.234;-60.334;2022-10-16T06:49:21;10.00;99.90
55771;DHT22;41687;-33.234;-60.334;2022-10-16T06:51:49;10.00;99.90
55771;DHT22;41687;-33.234;-60.334;2022-10-16T06:54:17;10.10;99.90
55771;DHT22;41687;-33.234;-60.334;2022-10-16T06:56:45;10.00;99.90
55771;DHT22;41687;-33.234;-60.334;2022-10-16T06:59:13;10.00;99.90
55771;DHT22;41687;-33.234;-60.334;2022-10-16T07:01:40;10.10;99.90
55771;DHT22;41687;-33.234;-60.334;2022-10-16T07:04:08;10.10;99.90
55771;DHT22;41687;-33.234;-60.334;2022-10-16T07:06:36;9.90;99.90
55771;DHT22;41687;-33.234;-60.334;2022-10-16T07:09:07;10.00;99.90
55771;DHT22;41687;-33.234;-60.334;2022-10-16T07:11:37;10.00;99.90
55771;DHT22;41687;-33.234;-60.334;2022-10-16T07:14:10;10.00;99.90
55771;DHT22;41687;-33.234;-60.334;2022-10-16T07:16:39;10.00;99.90
55771;DHT22;41687;-33.234;-60.334;2022-10-16T07:19:07;10.00;99.90
55771;DHT22;41687;-33.234;-60.334;2022-10-16T07:21:35;10.10;99.90
55771;DHT22;41687;-33.234;-60.334;2022-10-16T07:24:05;10.00;99.90
55771;DHT22;41687;-33.234;-60.334;2022-10-16T07:26:35;10.00;99.90
55771;DHT22;41687;-33.234;-60.334;2022-10-16T07:29:04;9.80;99.90
55771;DHT22;41687;-33.234;-60.334;2022-10-16T07:31:32;9.80;99.90
55771;DHT22;41687;-33.234;-60.334;2022-10-16T07:34:00;9.80;99.90
55771;DHT22;41687;-33.234;-60.334;2022-10-16T07:36:28;9.80;99.90
55771;DHT22;41687;-33.234;-60.334;2022-10-16T07:38:56;9.80;99.90
55771;DHT22;41687;-33.234;-60.334;2022-10-16T07:41:24;9.80;99.90
55771;DHT22;41687;-33.234;-60.334;2022-10-16T07:43:53;9.90;99.90
55771;DHT22;41687;-33.234;-60.334;2022-10-16T07:46:22;9.90;99.90
55771;DHT22;41687;-33.234;-60.334;2022-10-16T07:48:51;9.90;99.90
55771;DHT22;41687;-33.234;-60.334;2022-10-16T07:51:21;9.80;99.90
55771;DHT22;41687;-33.234;-60.334;2022-10-16T07:53:49;9.90;99.90
55771;DHT22;41687;-33.234;-60.334;2022-10-16T07:56:18;9.80;99.90
55771;DHT22;41687;-33.234;-60.334;2022-10-16T07:58:46;9.80;99.90
55771;DHT22;41687;-33.234;-60.334;2022-10-16T08:01:17;9.80;99.90
55771;DHT22;41687;-33.234;-60.334;2022-10-16T08:03:50;9.80;99.90
55771;DHT22;41687;-33.234;-60.334;2022-10-16T08:06:20;9.80;99.90
55771;DHT22;41687;-33.234;-60.334;2022-10-16T08:08:48;9.80;99.90
55771;DHT22;41687;-33.234;-60.334;2022-10-16T08:11:16;9.80;99.90
55771;DHT22;41687;-33.234;-60.334;2022-10-16T08:13:44;9.90;99.90
55771;DHT22;41687;-33.234;-60.334;2022-10-16T08:16:11;9.90;99.90
55771;DHT22;41687;-33.234;-60.334;2022-10-16T08:18:40;9.90;99.90
55771;DHT22;41687;-33.234;-60.334;2022-10-16T08:21:13;10.00;99.90
55771;DHT22;41687;-33.234;-60.334;2022-10-16T08:23:42;9.90;99.90
55771;DHT22;41687;-33.234;-60.334;2022-10-16T08:26:12;9.90;99.90
55771;DHT22;41687;-33.234;-60.334;2022-10-16T08:28:40;9.80;99.90
55771;DHT22;41687;-33.234;-60.334;2022-10-16T08:31:09;9.80;99.90
55771;DHT22;41687;-33.234;-60.334;2022-10-16T08:33:39;9.90;99.90
55771;DHT22;41687;-33.234;-60.334;2022-10-16T08:36:08;9.90;99.90
55771;DHT22;41687;-33.234;-60.334;2022-10-16T08:38:37;9.90;99.90
55771;DHT22;41687;-33.234;-60.334;2022-10-16T08:44:31;9.90;99.90
55771;DHT22;41687;-33.234;-60.334;2022-10-16T08:47:19;9.90;99.90
55771;DHT22;41687;-33.234;-60.334;2022-10-16T08:50:11;10.00;99.90
55771;DHT22;41687;-33.234;-60.334;2022-10-16T08:52:42;10.00;99.90
55771;DHT22;41687;-33.234;-60.334;2022-10-16T08:58:01;10.00;99.90
55771;DHT22;41687;-33.234;-60.334;2022-10-16T09:00:29;10.00;99.90
55771;DHT22;41687;-33.234;-60.334;2022-10-16T09:06:05;10.00;99.90
55771;DHT22;41687;-33.234;-60.334;2022-10-16T09:14:16;10.00;99.90
55771;DHT22;41687;-33.234;-60.334;2022-10-16T09:16:52;10.10;99.90
55771;DHT22;41687;-33.234;-60.334;2022-10-16T09:19:36;10.00;99.90
55771;DHT22;41687;-33.234;-60.334;2022-10-16T09:22:14;10.10;99.90
55771;DHT22;41687;-33.234;-60.334;2022-10-16T09:24:43;10.00;99.90
55771;DHT22;41687;-33.234;-60.334;2022-10-16T09:27:13;10.00;99.90
55771;DHT22;41687;-33.234;-60.334;2022-10-16T09:29:41;10.00;99.90
55771;DHT22;41687;-33.234;-60.334;2022-10-16T09:32:17;10.00;99.90
55771;DHT22;41687;-33.234;-60.334;2022-10-16T09:34:52;10.00;99.90
55771;DHT22;41687;-33.234;-60.334;2022-10-16T09:37:24;10.10;99.90
55771;DHT22;41687;-33.234;-60.334;2022-10-16T09:39:54;10.20;99.90
55771;DHT22;41687;-33.234;-60.334;2022-10-16T09:42:31;10.20;99.90
55771;DHT22;41687;-33.234;-60.334;2022-10-16T09:45:00;10.30;99.90
55771;DHT22;41687;-33.234;-60.334;2022-10-16T09:47:29;10.40;99.90
55771;DHT22;41687;-33.234;-60.334;2022-10-16T09:50:04;10.30;99.90
55771;DHT22;41687;-33.234;-60.334;2022-10-16T09:52:33;10.40;99.90
55771;DHT22;41687;-33.234;-60.334;2022-10-16T09:55:24;10.50;99.90
55771;DHT22;41687;-33.234;-60.334;2022-10-16T09:57:54;10.40;99.90
55771;DHT22;41687;-33.234;-60.334;2022-10-16T10:00:24;10.30;99.90
55771;DHT22;41687;-33.234;-60.334;2022-10-16T10:02:54;10.30;99.90
55771;DHT22;41687;-33.234;-60.334;2022-10-16T10:05:27;10.40;99.90
55771;DHT22;41687;-33.234;-60.334;2022-10-16T10:08:03;10.40;99.90
55771;DHT22;41687;-33.234;-60.334;2022-10-16T10:10:41;10.50;99.90
55771;DHT22;41687;-33.234;-60.334;2022-10-16T10:13:21;10.50;99.90
55771;DHT22;41687;-33.234;-60.334;2022-10-16T10:15:51;10.50;99.90
55771;DHT22;41687;-33.234;-60.334;2022-10-16T10:18:22;10.50;99.90
55771;DHT22;41687;-33.234;-60.334;2022-10-16T10:21:12;10.60;99.90
55771;DHT22;41687;-33.234;-60.334;2022-10-16T10:23:41;10.60;99.90
55771;DHT22;41687;-33.234;-60.334;2022-10-16T10:26:20;10.60;99.90
55771;DHT22;41687;-33.234;-60.334;2022-10-16T10:32:40;10.60;99.90
55771;DHT22;41687;-33.234;-60.334;2022-10-16T10:35:19;10.60;99.90
55771;DHT22;41687;-33.234;-60.334;2022-10-16T10:38:06;10.60;99.90
55771;DHT22;41687;-33.234;-60.334;2022-10-16T10:46:33;10.70;99.90
55771;DHT22;41687;-33.234;-60.334;2022-10-16T10:49:45;10.80;99.90
55771;DHT22;41687;-33.234;-60.334;2022-10-16T10:55:28;10.90;99.90
55771;DHT22;41687;-33.234;-60.334;2022-10-16T11:14:42;11.00;99.90
55771;DHT22;41687;-33.234;-60.334;2022-10-16T11:17:25;11.00;99.90
55771;DHT22;41687;-33.234;-60.334;2022-10-16T11:19:58;11.00;99.90
55771;DHT22;41687;-33.234;-60.334;2022-10-16T11:30:52;11.10;99.90
55771;DHT22;41687;-33.234;-60.334;2022-10-16T11:33:40;11.20;99.90
55771;DHT22;41687;-33.234;-60.334;2022-10-16T11:39:21;11.40;99.90
55771;DHT22;41687;-33.234;-60.334;2022-10-16T11:56:07;11.50;99.90
55771;DHT22;41687;-33.234;-60.334;2022-10-16T11:58:45;11.60;99.90
55771;DHT22;41687;-33.234;-60.334;2022-10-16T12:07:06;11.60;99.90
55771;DHT22;41687;-33.234;-60.334;2022-10-16T12:09:40;11.60;99.90
55771;DHT22;41687;-33.234;-60.334;2022-10-16T12:15:31;11.70;99.90
55771;DHT22;41687;-33.234;-60.334;2022-10-16T12:18:00;11.80;99.90
55771;DHT22;41687;-33.234;-60.334;2022-10-16T12:23:07;11.90;99.90
55771;DHT22;41687;-33.234;-60.334;2022-10-16T12:25:54;11.90;99.90
55771;DHT22;41687;-33.234;-60.334;2022-10-16T12:28:27;11.90;99.90
55771;DHT22;41687;-33.234;-60.334;2022-10-16T12:31:07;11.90;99.90
55771;DHT22;41687;-33.234;-60.334;2022-10-16T12:33:41;11.90;99.90
55771;DHT22;41687;-33.234;-60.334;2022-10-16T12:36:32;12.00;99.90
55771;DHT22;41687;-33.234;-60.334;2022-10-16T12:39:02;12.10;99.90
55771;DHT22;41687;-33.234;-60.334;2022-10-16T12:41:32;12.00;99.90
55771;DHT22;41687;-33.234;-60.334;2022-10-16T12:44:02;12.20;99.90
55771;DHT22;41687;-33.234;-60.334;2022-10-16T12:49:14;12.40;99.90
55771;DHT22;41687;-33.234;-60.334;2022-10-16T12:51:48;12.80;99.90
55771;DHT22;41687;-33.234;-60.334;2022-10-16T12:54:36;13.10;99.90
55771;DHT22;41687;-33.234;-60.334;2022-10-16T13:00:13;13.60;99.90
55771;DHT22;41687;-33.234;-60.334;2022-10-16T13:17:09;17.10;89.00
55771;DHT22;41687;-33.234;-60.334;2022-10-16T13:22:24;17.40;87.20
55771;DHT22;41687;-33.234;-60.334;2022-10-16T13:28:03;18.10;82.50
55771;DHT22;41687;-33.234;-60.334;2022-10-16T13:33:32;18.80;82.30
55771;DHT22;41687;-33.234;-60.334;2022-10-16T13:36:01;19.30;77.30
55771;DHT22;41687;-33.234;-60.334;2022-10-16T13:38:34;19.50;78.30
55771;DHT22;41687;-33.234;-60.334;2022-10-16T13:41:14;19.80;76.30
55771;DHT22;41687;-33.234;-60.334;2022-10-16T13:43:50;20.30;73.70
55771;DHT22;41687;-33.234;-60.334;2022-10-16T13:46:21;20.50;74.80
55771;DHT22;41687;-33.234;-60.334;2022-10-16T13:49:04;20.70;75.30
55771;DHT22;41687;-33.234;-60.334;2022-10-16T13:51:33;20.70;70.30
55771;DHT22;41687;-33.234;-60.334;2022-10-16T13:54:00;20.90;73.20
55771;DHT22;41687;-33.234;-60.334;2022-10-16T13:56:30;20.70;72.90
55771;DHT22;41687;-33.234;-60.334;2022-10-16T13:59:02;20.90;71.50
55771;DHT22;41687;-33.234;-60.334;2022-10-16T14:01:33;21.30;69.90
55771;DHT22;41687;-33.234;-60.334;2022-10-16T14:04:08;21.60;70.30
55771;DHT22;41687;-33.234;-60.334;2022-10-16T14:06:40;20.90;65.80
55771;DHT22;41687;-33.234;-60.334;2022-10-16T14:09:23;20.60;68.70
55771;DHT22;41687;-33.234;-60.334;2022-10-16T14:11:58;20.90;67.50
55771;DHT22;41687;-33.234;-60.334;2022-10-16T14:14:34;21.50;68.30
55771;DHT22;41687;-33.234;-60.334;2022-10-16T14:17:03;21.60;67.60
55771;DHT22;41687;-33.234;-60.334;2022-10-16T14:19:31;22.00;66.60
55771;DHT22;41687;-33.234;-60.334;2022-10-16T14:22:01;21.90;65.20
55771;DHT22;41687;-33.234;-60.334;2022-10-16T14:24:34;21.90;65.00
55771;DHT22;41687;-33.234;-60.334;2022-10-16T14:27:28;22.20;64.00
55771;DHT22;41687;-33.234;-60.334;2022-10-16T14:29:50;22.10;64.00
55771;DHT22;41687;-33.234;-60.334;2022-10-16T14:32:24;22.10;63.60
55771;DHT22;41687;-33.234;-60.334;2022-10-16T14:34:55;21.90;62.00
55771;DHT22;41687;-33.234;-60.334;2022-10-16T14:37:25;22.10;61.00
55771;DHT22;41687;-33.234;-60.334;2022-10-16T14:39:54;21.90;62.80
55771;DHT22;41687;-33.234;-60.334;2022-10-16T14:42:24;21.80;64.20
55771;DHT22;41687;-33.234;-60.334;2022-10-16T14:44:54;22.00;62.20
55771;DHT22;41687;-33.234;-60.334;2022-10-16T14:47:25;21.90;63.80
55771;DHT22;41687;-33.234;-60.334;2022-10-16T14:49:54;21.30;62.60
55771;DHT22;41687;-33.234;-60.334;2022-10-16T14:52:27;20.60;64.70
55771;DHT22;41687;-33.234;-60.334;2022-10-16T14:54:54;20.50;66.50
55771;DHT22;41687;-33.234;-60.334;2022-10-16T14:57:28;20.50;65.60
55771;DHT22;41687;-33.234;-60.334;2022-10-16T14:59:59;20.10;65.00
55771;DHT22;41687;-33.234;-60.334;2022-10-16T15:02:32;19.60;65.80
55771;DHT22;41687;-33.234;-60.334;2022-10-16T15:05:22;19.50;67.30
55771;DHT22;41687;-33.234;-60.334;2022-10-16T15:07:51;20.30;66.20
55771;DHT22;41687;-33.234;-60.334;2022-10-16T15:10:22;20.40;66.20
55771;DHT22;41687;-33.234;-60.334;2022-10-16T15:12:52;20.20;66.00
55771;DHT22;41687;-33.234;-60.334;2022-10-16T15:17:55;20.50;65.40
55771;DHT22;41687;-33.234;-60.334;2022-10-16T15:20:25;20.30;64.20
55771;DHT22;41687;-33.234;-60.334;2022-10-16T15:22:52;19.90;64.60
55771;DHT22;41687;-33.234;-60.334;2022-10-16T15:25:31;19.40;65.30
55771;DHT22;41687;-33.234;-60.334;2022-10-16T15:28:00;19.90;64.10
55771;DHT22;41687;-33.234;-60.334;2022-10-16T15:30:28;20.10;65.60
55771;DHT22;41687;-33.234;-60.334;2022-10-16T15:32:57;20.50;63.90
55771;DHT22;41687;-33.234;-60.334;2022-10-16T15:35:24;20.50;62.00
55771;DHT22;41687;-33.234;-60.334;2022-10-16T15:37:52;20.50;62.50
55771;DHT22;41687;-33.234;-60.334;2022-10-16T15:40:21;20.30;64.50
55771;DHT22;41687;-33.234;-60.334;2022-10-16T15:42:50;20.30;64.70
55771;DHT22;41687;-33.234;-60.334;2022-10-16T15:45:18;20.30;64.50
55771;DHT22;41687;-33.234;-60.334;2022-10-16T15:47:46;20.40;62.40
55771;DHT22;41687;-33.234;-60.334;2022-10-16T15:50:15;20.70;61.80
55771;DHT22;41687;-33.234;-60.334;2022-10-16T15:52:44;20.30;59.80
55771;DHT22;41687;-33.234;-60.334;2022-10-16T15:55:14;19.90;60.20
55771;DHT22;41687;-33.234;-60.334;2022-10-16T15:57:42;19.70;63.10
55771;DHT22;41687;-33.234;-60.334;2022-10-16T16:00:13;19.40;62.70
55771;DHT22;41687;-33.234;-60.334;2022-10-16T16:02:43;19.40;61.20
55771;DHT22;41687;-33.234;-60.334;2022-10-16T16:05:11;19.30;63.00
55771;DHT22;41687;-33.234;-60.334;2022-10-16T16:07:39;19.10;63.00
55771;DHT22;41687;-33.234;-60.334;2022-10-16T16:10:09;18.90;62.90
55771;DHT22;41687;-33.234;-60.334;2022-10-16T16:12:38;18.90;63.10
55771;DHT22;41687;-33.234;-60.334;2022-10-16T16:15:07;19.10;62.80
55771;DHT22;41687;-33.234;-60.334;2022-10-16T16:17:36;19.00;60.10
55771;DHT22;41687;-33.234;-60.334;2022-10-16T16:20:05;19.00;62.90
55771;DHT22;41687;-33.234;-60.334;2022-10-16T16:22:33;19.40;61.40
55771;DHT22;41687;-33.234;-60.334;2022-10-16T16:25:01;19.60;60.00
55771;DHT22;41687;-33.234;-60.334;2022-10-16T16:27:29;19.40;60.70
55771;DHT22;41687;-33.234;-60.334;2022-10-16T16:30:01;19.50;60.90
55771;DHT22;41687;-33.234;-60.334;2022-10-16T16:32:30;19.30;59.90
55771;DHT22;41687;-33.234;-60.334;2022-10-16T16:34:58;19.50;60.90
55771;DHT22;41687;-33.234;-60.334;2022-10-16T16:37:25;19.50;60.50
55771;DHT22;41687;-33.234;-60.334;2022-10-16T16:39:53;19.50;60.20
55771;DHT22;41687;-33.234;-60.334;2022-10-16T16:42:22;19.80;60.40
55771;DHT22;41687;-33.234;-60.334;2022-10-16T16:44:51;20.10;60.30
55771;DHT22;41687;-33.234;-60.334;2022-10-16T16:47:19;19.90;59.30
55771;DHT22;41687;-33.234;-60.334;2022-10-16T16:49:47;19.90;59.20
55771;DHT22;41687;-33.234;-60.334;2022-10-16T16:52:15;20.20;59.00
55771;DHT22;41687;-33.234;-60.334;2022-10-16T16:54:43;20.10;59.10
55771;DHT22;41687;-33.234;-60.334;2022-10-16T16:57:21;20.00;59.60
55771;DHT22;41687;-33.234;-60.334;2022-10-16T16:59:50;19.80;58.70
55771;DHT22;41687;-33.234;-60.334;2022-10-16T17:02:19;19.40;58.30
55771;DHT22;41687;-33.234;-60.334;2022-10-16T17:04:47;19.40;60.80
55771;DHT22;41687;-33.234;-60.334;2022-10-16T17:07:14;19.30;60.10
55771;DHT22;41687;-33.234;-60.334;2022-10-16T17:09:42;19.30;60.00
55771;DHT22;41687;-33.234;-60.334;2022-10-16T17:12:10;19.30;59.90
55771;DHT22;41687;-33.234;-60.334;2022-10-16T17:14:38;19.40;60.60
55771;DHT22;41687;-33.234;-60.334;2022-10-16T17:17:06;19.70;59.00